Rosalie, NE (68055)

3:44 AM CDT on September 21, 2019 (GMT -0500)
MACKLIN | | Change Station
Active Advisory: Flood Warning

Elev 1316 ft 42.05 °N, 96.60 °W | Updated 14 minutes ago

Overcast
Overcast
70.5 °F
Feels Like 70.5 °F
N
10
Wind Variable Wind from South
Gusts 13.0 mph

Today
High -- | Low -- °F
--% Chance of Precip.
Yesterday
High -- | Low -- °F
Precip. -- in
Pressure 29.80 in
Visibility 10.0 miles
Clouds Mostly Cloudy 1400 ft
Overcast 1800 ft
Dew Point 67 °F
Humidity 89%
Rainfall 0.00 in
Snow Depth Not available.
7:12 AM 7:25 PM
Waning Gibbous, 58% visible
METAR KSUX 210752Z AUTO 16011G19KT 10SM BKN014 OVC018 22/21 A2982 RMK AO2 RAB02E26 SLP090 P0000 T02170206 TSNO
Pressure 29.80 in
Visibility 10.0 miles
Clouds Mostly Cloudy 1400 ft
Overcast 1800 ft
Dew Point 67 °F
Humidity 89%
Rainfall 0.00 in
Snow Depth Not available.
7:12 AM 7:25 PM
Waning Gibbous, 58% visible
METAR KSUX 210752Z AUTO 16011G19KT 10SM BKN014 OVC018 22/21 A2982 RMK AO2 RAB02E26 SLP090 P0000 T02170206 TSNO

Get Your Daily Forecast Email!

Thanks for signing up!

Be on the lookout for a verification email in your inbox.

You'll start receiving severe weather alerts in your inbox..

×

10-Day Weather Forecast

Almanac

Astronomy

Sep. 21, 2019 Rise Set
Actual Time
Civil Twilight
Nautical Twilight
Astronomical Twilight
Moon
Length of Visible Light
Length of Day
Tomorrow will be .
, % of the Moon is Illuminated

Today's Extremes

State Highs State Lows

Community

WunderPhotos

Category 6

Welcome to Category 6. This is the collective home for Weather Underground's featured writeups by Dr. Jeff Masters (right), Bob Henson (left), Chris Burt, and other regular contributors.

Nearby

Air Quality

  Air Quality AQ Index Pollutant
Not available.

Snow Depth

Station Depth Elevation

Earthquake Activity

City Distance Mag. Time & Date
Minimum magnitude displayed is 2.5.

Coastal Water Temperatures

Place Temperature

Stations

Nearby Weather Stations

Station Location Temp. Windchill Dew Point Humidity Wind Precip. Elev Updated Type
                   

Watches & Warnings

Flood Warning
Issued: 8:24 PM CDT Sep. 20, 2019 – National Weather Service

The Flood Warning continues for
the Missouri River at Decatur.
* At 8:00 PM Friday the stage was 36.3 feet... or 1.3 feet above
flood stage.
* Flood stage is 35.0 feet.
* Minor flooding is occurring and minor flooding is forecast.
* Forecast... the river will continue to fall to below flood stage by
late Tuesday morning September 24th.



Lat... Lon 4228 9643 4228 9610 4203 9594 4180 9595
      4180 9624